sensor_id;sensor_type;location;lat;lon;timestamp;P1;durP1;ratioP1;P2;durP2;ratioP2
47413;SDS011;33163;0.000;0.000;2023-05-14T00:01:15;8.02;;;5.68;;
47413;SDS011;33163;0.000;0.000;2023-05-14T00:03:42;7.22;;;5.95;;
47413;SDS011;33163;0.000;0.000;2023-05-14T00:06:09;11.13;;;5.80;;
47413;SDS011;33163;0.000;0.000;2023-05-14T00:08:36;9.48;;;5.65;;
47413;SDS011;33163;0.000;0.000;2023-05-14T00:11:02;7.05;;;5.10;;
47413;SDS011;33163;0.000;0.000;2023-05-14T00:13:29;9.40;;;6.28;;
47413;SDS011;33163;0.000;0.000;2023-05-14T00:15:56;9.82;;;6.00;;
47413;SDS011;33163;0.000;0.000;2023-05-14T00:18:24;11.20;;;6.00;;
47413;SDS011;33163;0.000;0.000;2023-05-14T00:20:51;8.00;;;5.22;;
47413;SDS011;33163;0.000;0.000;2023-05-14T00:23:18;9.80;;;6.07;;
47413;SDS011;33163;0.000;0.000;2023-05-14T00:25:45;8.50;;;5.15;;
47413;SDS011;33163;0.000;0.000;2023-05-14T00:28:12;8.85;;;5.28;;
47413;SDS011;33163;0.000;0.000;2023-05-14T00:30:39;10.57;;;5.50;;
47413;SDS011;33163;0.000;0.000;2023-05-14T00:33:06;13.00;;;6.57;;
47413;SDS011;33163;0.000;0.000;2023-05-14T00:35:34;11.82;;;5.78;;
47413;SDS011;33163;0.000;0.000;2023-05-14T00:38:01;6.72;;;5.32;;
47413;SDS011;33163;0.000;0.000;2023-05-14T00:40:28;8.95;;;5.05;;
47413;SDS011;33163;0.000;0.000;2023-05-14T00:42:55;9.65;;;5.60;;
47413;SDS011;33163;0.000;0.000;2023-05-14T00:45:22;10.15;;;6.28;;
47413;SDS011;33163;0.000;0.000;2023-05-14T00:47:48;11.27;;;5.70;;
47413;SDS011;33163;0.000;0.000;2023-05-14T00:50:16;11.60;;;5.30;;
47413;SDS011;33163;0.000;0.000;2023-05-14T00:52:44;8.23;;;5.30;;
47413;SDS011;33163;0.000;0.000;2023-05-14T00:55:12;10.20;;;4.95;;
47413;SDS011;33163;0.000;0.000;2023-05-14T00:57:40;10.00;;;5.70;;
47413;SDS011;33163;0.000;0.000;2023-05-14T01:00:07;8.27;;;5.15;;
47413;SDS011;33163;0.000;0.000;2023-05-14T01:02:34;10.50;;;5.88;;
47413;SDS011;33163;0.000;0.000;2023-05-14T01:05:01;11.68;;;5.40;;
47413;SDS011;33163;0.000;0.000;2023-05-14T01:07:29;9.18;;;5.55;;
47413;SDS011;33163;0.000;0.000;2023-05-14T01:10:04;8.27;;;5.15;;
47413;SDS011;33163;0.000;0.000;2023-05-14T01:12:38;7.85;;;5.40;;
47413;SDS011;33163;0.000;0.000;2023-05-14T01:15:13;7.10;;;5.07;;
47413;SDS011;33163;0.000;0.000;2023-05-14T01:17:45;7.13;;;5.03;;
47413;SDS011;33163;0.000;0.000;2023-05-14T01:20:15;9.50;;;5.75;;
47413;SDS011;33163;0.000;0.000;2023-05-14T01:22:44;10.38;;;5.97;;
47413;SDS011;33163;0.000;0.000;2023-05-14T01:25:10;8.05;;;5.43;;
47413;SDS011;33163;0.000;0.000;2023-05-14T01:27:39;9.82;;;5.50;;
47413;SDS011;33163;0.000;0.000;2023-05-14T01:30:12;9.48;;;5.65;;
47413;SDS011;33163;0.000;0.000;2023-05-14T01:32:42;9.52;;;5.57;;
47413;SDS011;33163;0.000;0.000;2023-05-14T01:35:12;7.57;;;5.15;;
47413;SDS011;33163;0.000;0.000;2023-05-14T01:37:40;8.85;;;5.53;;
47413;SDS011;33163;0.000;0.000;2023-05-14T01:40:10;7.88;;;5.50;;
47413;SDS011;33163;0.000;0.000;2023-05-14T01:42:38;10.15;;;5.47;;
47413;SDS011;33163;0.000;0.000;2023-05-14T01:45:05;9.13;;;5.32;;
47413;SDS011;33163;0.000;0.000;2023-05-14T01:47:33;11.30;;;5.07;;
47413;SDS011;33163;0.000;0.000;2023-05-14T01:50:00;11.00;;;5.88;;
47413;SDS011;33163;0.000;0.000;2023-05-14T01:52:26;11.85;;;5.85;;
47413;SDS011;33163;0.000;0.000;2023-05-14T01:54:54;9.43;;;5.13;;
47413;SDS011;33163;0.000;0.000;2023-05-14T01:57:23;10.68;;;5.50;;
47413;SDS011;33163;0.000;0.000;2023-05-14T01:59:50;8.23;;;5.47;;
47413;SDS011;33163;0.000;0.000;2023-05-14T02:02:17;8.82;;;4.88;;
47413;SDS011;33163;0.000;0.000;2023-05-14T02:04:44;11.55;;;6.05;;
47413;SDS011;33163;0.000;0.000;2023-05-14T02:07:10;8.65;;;5.63;;
47413;SDS011;33163;0.000;0.000;2023-05-14T02:09:37;8.98;;;5.70;;
47413;SDS011;33163;0.000;0.000;2023-05-14T02:12:05;10.38;;;5.72;;
47413;SDS011;33163;0.000;0.000;2023-05-14T02:14:34;7.72;;;5.50;;
47413;SDS011;33163;0.000;0.000;2023-05-14T02:17:00;8.73;;;5.43;;
47413;SDS011;33163;0.000;0.000;2023-05-14T02:19:28;8.88;;;5.28;;
47413;SDS011;33163;0.000;0.000;2023-05-14T02:21:54;9.43;;;5.90;;
47413;SDS011;33163;0.000;0.000;2023-05-14T02:24:21;8.32;;;4.50;;
47413;SDS011;33163;0.000;0.000;2023-05-14T02:26:48;8.10;;;5.95;;
47413;SDS011;33163;0.000;0.000;2023-05-14T02:29:14;8.43;;;5.32;;
47413;SDS011;33163;0.000;0.000;2023-05-14T02:31:43;7.80;;;6.03;;
47413;SDS011;33163;0.000;0.000;2023-05-14T02:34:09;9.70;;;6.07;;
47413;SDS011;33163;0.000;0.000;2023-05-14T02:36:36;10.52;;;5.95;;
47413;SDS011;33163;0.000;0.000;2023-05-14T02:39:03;7.60;;;5.65;;
47413;SDS011;33163;0.000;0.000;2023-05-14T02:41:29;9.57;;;5.25;;
47413;SDS011;33163;0.000;0.000;2023-05-14T02:43:56;7.70;;;5.47;;
47413;SDS011;33163;0.000;0.000;2023-05-14T02:46:23;12.05;;;5.68;;
47413;SDS011;33163;0.000;0.000;2023-05-14T02:48:51;7.80;;;4.82;;
47413;SDS011;33163;0.000;0.000;2023-05-14T02:51:18;9.18;;;5.68;;
47413;SDS011;33163;0.000;0.000;2023-05-14T02:53:45;9.10;;;5.90;;
47413;SDS011;33163;0.000;0.000;2023-05-14T02:56:12;10.27;;;5.80;;
47413;SDS011;33163;0.000;0.000;2023-05-14T02:58:38;7.00;;;5.28;;
47413;SDS011;33163;0.000;0.000;2023-05-14T03:01:05;9.35;;;5.82;;
47413;SDS011;33163;0.000;0.000;2023-05-14T03:03:34;8.82;;;5.40;;
47413;SDS011;33163;0.000;0.000;2023-05-14T03:06:03;7.80;;;4.85;;
47413;SDS011;33163;0.000;0.000;2023-05-14T03:08:30;9.07;;;4.85;;
47413;SDS011;33163;0.000;0.000;2023-05-14T03:10:57;8.15;;;5.13;;
47413;SDS011;33163;0.000;0.000;2023-05-14T03:13:23;9.52;;;5.05;;
47413;SDS011;33163;0.000;0.000;2023-05-14T03:15:50;6.03;;;4.50;;
47413;SDS011;33163;0.000;0.000;2023-05-14T03:18:18;8.57;;;4.90;;
47413;SDS011;33163;0.000;0.000;2023-05-14T03:20:45;9.45;;;5.32;;
47413;SDS011;33163;0.000;0.000;2023-05-14T03:23:13;7.05;;;4.57;;
47413;SDS011;33163;0.000;0.000;2023-05-14T03:25:40;8.57;;;4.65;;
47413;SDS011;33163;0.000;0.000;2023-05-14T03:28:07;11.65;;;5.93;;
47413;SDS011;33163;0.000;0.000;2023-05-14T03:30:34;11.20;;;5.97;;
47413;SDS011;33163;0.000;0.000;2023-05-14T03:33:01;11.57;;;6.03;;
47413;SDS011;33163;0.000;0.000;2023-05-14T03:35:28;7.90;;;4.97;;
47413;SDS011;33163;0.000;0.000;2023-05-14T03:37:55;7.60;;;4.80;;
47413;SDS011;33163;0.000;0.000;2023-05-14T03:40:24;11.05;;;5.38;;
47413;SDS011;33163;0.000;0.000;2023-05-14T03:42:51;7.13;;;4.88;;
47413;SDS011;33163;0.000;0.000;2023-05-14T03:45:18;10.18;;;5.07;;
47413;SDS011;33163;0.000;0.000;2023-05-14T03:47:44;7.68;;;4.97;;
47413;SDS011;33163;0.000;0.000;2023-05-14T03:50:11;6.75;;;4.90;;
47413;SDS011;33163;0.000;0.000;2023-05-14T03:52:38;7.57;;;5.00;;
47413;SDS011;33163;0.000;0.000;2023-05-14T03:55:05;7.35;;;5.53;;
47413;SDS011;33163;0.000;0.000;2023-05-14T03:57:34;7.60;;;5.32;;
47413;SDS011;33163;0.000;0.000;2023-05-14T04:00:01;7.40;;;4.68;;
47413;SDS011;33163;0.000;0.000;2023-05-14T04:02:27;10.32;;;5.22;;
47413;SDS011;33163;0.000;0.000;2023-05-14T04:04:54;7.18;;;4.80;;
47413;SDS011;33163;0.000;0.000;2023-05-14T04:07:21;6.28;;;4.57;;
47413;SDS011;33163;0.000;0.000;2023-05-14T04:09:48;7.30;;;4.35;;
47413;SDS011;33163;0.000;0.000;2023-05-14T04:12:14;8.70;;;4.47;;
47413;SDS011;33163;0.000;0.000;2023-05-14T04:14:42;6.68;;;4.13;;
47413;SDS011;33163;0.000;0.000;2023-05-14T04:17:09;10.00;;;4.97;;
47413;SDS011;33163;0.000;0.000;2023-05-14T04:19:36;10.18;;;4.78;;
47413;SDS011;33163;0.000;0.000;2023-05-14T04:22:03;8.00;;;4.97;;
47413;SDS011;33163;0.000;0.000;2023-05-14T04:24:30;8.38;;;4.95;;
47413;SDS011;33163;0.000;0.000;2023-05-14T04:26:56;7.53;;;4.63;;
47413;SDS011;33163;0.000;0.000;2023-05-14T04:29:23;9.88;;;4.85;;
47413;SDS011;33163;0.000;0.000;2023-05-14T04:31:51;5.72;;;4.25;;
47413;SDS011;33163;0.000;0.000;2023-05-14T04:34:18;8.18;;;4.88;;
47413;SDS011;33163;0.000;0.000;2023-05-14T04:36:45;8.18;;;4.85;;
47413;SDS011;33163;0.000;0.000;2023-05-14T04:39:12;7.72;;;4.70;;
47413;SDS011;33163;0.000;0.000;2023-05-14T04:41:39;7.13;;;4.50;;
47413;SDS011;33163;0.000;0.000;2023-05-14T04:44:06;10.38;;;4.90;;
47413;SDS011;33163;0.000;0.000;2023-05-14T04:46:33;8.52;;;4.88;;
47413;SDS011;33163;0.000;0.000;2023-05-14T04:49:01;5.47;;;4.45;;
47413;SDS011;33163;0.000;0.000;2023-05-14T04:51:28;6.18;;;4.30;;
47413;SDS011;33163;0.000;0.000;2023-05-14T04:53:55;6.22;;;4.68;;
47413;SDS011;33163;0.000;0.000;2023-05-14T04:56:22;12.35;;;5.50;;
47413;SDS011;33163;0.000;0.000;2023-05-14T04:58:49;6.93;;;4.47;;
47413;SDS011;33163;0.000;0.000;2023-05-14T05:01:16;6.32;;;4.45;;
47413;SDS011;33163;0.000;0.000;2023-05-14T05:03:43;7.72;;;4.10;;
47413;SDS011;33163;0.000;0.000;2023-05-14T05:06:11;7.05;;;4.25;;
47413;SDS011;33163;0.000;0.000;2023-05-14T05:08:38;7.68;;;4.70;;
47413;SDS011;33163;0.000;0.000;2023-05-14T05:11:05;7.78;;;4.25;;
47413;SDS011;33163;0.000;0.000;2023-05-14T05:13:32;7.78;;;4.30;;
47413;SDS011;33163;0.000;0.000;2023-05-14T05:15:58;8.45;;;4.55;;
47413;SDS011;33163;0.000;0.000;2023-05-14T05:18:25;8.20;;;4.78;;
47413;SDS011;33163;0.000;0.000;2023-05-14T05:20:52;6.43;;;4.72;;
47413;SDS011;33163;0.000;0.000;2023-05-14T05:23:20;9.30;;;5.05;;
47413;SDS011;33163;0.000;0.000;2023-05-14T05:25:47;6.93;;;4.63;;
47413;SDS011;33163;0.000;0.000;2023-05-14T05:28:14;5.90;;;4.20;;
47413;SDS011;33163;0.000;0.000;2023-05-14T05:30:41;6.80;;;4.80;;
47413;SDS011;33163;0.000;0.000;2023-05-14T05:33:09;8.45;;;4.70;;
47413;SDS011;33163;0.000;0.000;2023-05-14T05:35:35;5.85;;;4.30;;
47413;SDS011;33163;0.000;0.000;2023-05-14T05:38:02;6.18;;;4.50;;
47413;SDS011;33163;0.000;0.000;2023-05-14T05:40:30;6.10;;;4.80;;
47413;SDS011;33163;0.000;0.000;2023-05-14T05:42:58;7.47;;;5.03;;
47413;SDS011;33163;0.000;0.000;2023-05-14T05:45:24;9.75;;;5.22;;
47413;SDS011;33163;0.000;0.000;2023-05-14T05:47:51;7.07;;;5.20;;
47413;SDS011;33163;0.000;0.000;2023-05-14T05:50:18;8.23;;;5.25;;
47413;SDS011;33163;0.000;0.000;2023-05-14T05:52:45;7.90;;;5.00;;
47413;SDS011;33163;0.000;0.000;2023-05-14T05:55:11;9.25;;;6.20;;
47413;SDS011;33163;0.000;0.000;2023-05-14T05:57:39;10.30;;;6.25;;
47413;SDS011;33163;0.000;0.000;2023-05-14T06:00:07;9.43;;;5.90;;
47413;SDS011;33163;0.000;0.000;2023-05-14T06:02:38;8.45;;;6.53;;
47413;SDS011;33163;0.000;0.000;2023-05-14T06:05:05;7.97;;;5.20;;
47413;SDS011;33163;0.000;0.000;2023-05-14T06:07:33;9.23;;;6.05;;
47413;SDS011;33163;0.000;0.000;2023-05-14T06:10:00;10.55;;;6.35;;
47413;SDS011;33163;0.000;0.000;2023-05-14T06:12:26;12.88;;;6.82;;
47413;SDS011;33163;0.000;0.000;2023-05-14T06:14:55;10.43;;;6.15;;
47413;SDS011;33163;0.000;0.000;2023-05-14T06:17:22;11.77;;;7.78;;
47413;SDS011;33163;0.000;0.000;2023-05-14T06:19:49;9.95;;;7.00;;
47413;SDS011;33163;0.000;0.000;2023-05-14T06:22:16;17.17;;;7.40;;
47413;SDS011;33163;0.000;0.000;2023-05-14T06:24:43;8.00;;;6.60;;
47413;SDS011;33163;0.000;0.000;2023-05-14T06:27:10;16.65;;;7.35;;
47413;SDS011;33163;0.000;0.000;2023-05-14T06:29:37;13.55;;;6.93;;
47413;SDS011;33163;0.000;0.000;2023-05-14T06:32:05;12.98;;;7.28;;
47413;SDS011;33163;0.000;0.000;2023-05-14T06:34:33;15.07;;;7.60;;
47413;SDS011;33163;0.000;0.000;2023-05-14T06:36:59;17.60;;;9.52;;
47413;SDS011;33163;0.000;0.000;2023-05-14T06:39:27;15.80;;;8.48;;
47413;SDS011;33163;0.000;0.000;2023-05-14T06:41:54;16.98;;;8.00;;
47413;SDS011;33163;0.000;0.000;2023-05-14T06:44:21;14.45;;;7.38;;
47413;SDS011;33163;0.000;0.000;2023-05-14T06:46:47;16.08;;;7.30;;
47413;SDS011;33163;0.000;0.000;2023-05-14T06:49:16;15.13;;;7.13;;
47413;SDS011;33163;0.000;0.000;2023-05-14T06:51:43;9.65;;;7.53;;
47413;SDS011;33163;0.000;0.000;2023-05-14T06:54:09;14.15;;;6.82;;
47413;SDS011;33163;0.000;0.000;2023-05-14T06:56:36;9.65;;;6.40;;
47413;SDS011;33163;0.000;0.000;2023-05-14T06:59:03;14.80;;;7.30;;
47413;SDS011;33163;0.000;0.000;2023-05-14T07:01:30;10.40;;;6.13;;
47413;SDS011;33163;0.000;0.000;2023-05-14T07:03:56;12.45;;;6.40;;
47413;SDS011;33163;0.000;0.000;2023-05-14T07:06:24;10.13;;;6.65;;
47413;SDS011;33163;0.000;0.000;2023-05-14T07:08:51;12.63;;;6.80;;
47413;SDS011;33163;0.000;0.000;2023-05-14T07:11:18;9.45;;;6.18;;
47413;SDS011;33163;0.000;0.000;2023-05-14T07:13:46;11.27;;;5.63;;
47413;SDS011;33163;0.000;0.000;2023-05-14T07:16:12;8.32;;;5.75;;
47413;SDS011;33163;0.000;0.000;2023-05-14T07:18:39;12.98;;;6.70;;
47413;SDS011;33163;0.000;0.000;2023-05-14T07:21:06;11.95;;;6.15;;
47413;SDS011;33163;0.000;0.000;2023-05-14T07:23:34;11.32;;;5.55;;
47413;SDS011;33163;0.000;0.000;2023-05-14T07:26:02;14.35;;;6.45;;
47413;SDS011;33163;0.000;0.000;2023-05-14T07:28:30;8.50;;;5.15;;
47413;SDS011;33163;0.000;0.000;2023-05-14T07:30:56;11.63;;;5.93;;
47413;SDS011;33163;0.000;0.000;2023-05-14T07:33:23;9.35;;;5.63;;
47413;SDS011;33163;0.000;0.000;2023-05-14T07:35:50;9.88;;;5.63;;
47413;SDS011;33163;0.000;0.000;2023-05-14T07:38:18;10.32;;;5.40;;
47413;SDS011;33163;0.000;0.000;2023-05-14T07:40:46;10.45;;;5.70;;
47413;SDS011;33163;0.000;0.000;2023-05-14T07:43:13;8.52;;;5.20;;
47413;SDS011;33163;0.000;0.000;2023-05-14T07:45:39;10.75;;;5.22;;
47413;SDS011;33163;0.000;0.000;2023-05-14T07:48:06;7.95;;;5.13;;
47413;SDS011;33163;0.000;0.000;2023-05-14T07:50:33;9.35;;;5.20;;
47413;SDS011;33163;0.000;0.000;2023-05-14T07:53:00;9.45;;;5.68;;
47413;SDS011;33163;0.000;0.000;2023-05-14T07:55:26;9.05;;;5.72;;
47413;SDS011;33163;0.000;0.000;2023-05-14T07:57:54;12.68;;;5.90;;
47413;SDS011;33163;0.000;0.000;2023-05-14T08:00:21;9.57;;;5.63;;
47413;SDS011;33163;0.000;0.000;2023-05-14T08:02:48;6.97;;;5.10;;
47413;SDS011;33163;0.000;0.000;2023-05-14T08:05:15;7.13;;;4.72;;
47413;SDS011;33163;0.000;0.000;2023-05-14T08:07:42;10.93;;;5.43;;
47413;SDS011;33163;0.000;0.000;2023-05-14T08:10:09;8.98;;;4.22;;
47413;SDS011;33163;0.000;0.000;2023-05-14T08:12:36;12.63;;;5.38;;
47413;SDS011;33163;0.000;0.000;2023-05-14T08:15:05;8.77;;;5.22;;
47413;SDS011;33163;0.000;0.000;2023-05-14T08:17:33;12.85;;;5.05;;
47413;SDS011;33163;0.000;0.000;2023-05-14T08:20:00;7.97;;;5.13;;
47413;SDS011;33163;0.000;0.000;2023-05-14T08:22:27;9.88;;;4.50;;
47413;SDS011;33163;0.000;0.000;2023-05-14T08:24:53;13.75;;;5.47;;
47413;SDS011;33163;0.000;0.000;2023-05-14T08:27:20;10.77;;;5.80;;
47413;SDS011;33163;0.000;0.000;2023-05-14T08:29:47;8.57;;;5.00;;
47413;SDS011;33163;0.000;0.000;2023-05-14T08:32:15;6.13;;;4.00;;
47413;SDS011;33163;0.000;0.000;2023-05-14T08:34:42;7.40;;;5.07;;
47413;SDS011;33163;0.000;0.000;2023-05-14T08:37:08;10.77;;;4.85;;
47413;SDS011;33163;0.000;0.000;2023-05-14T08:39:35;7.95;;;4.85;;
47413;SDS011;33163;0.000;0.000;2023-05-14T08:42:02;18.15;;;4.75;;
47413;SDS011;33163;0.000;0.000;2023-05-14T08:44:33;15.82;;;5.07;;
47413;SDS011;33163;0.000;0.000;2023-05-14T08:47:03;18.00;;;4.65;;
47413;SDS011;33163;0.000;0.000;2023-05-14T08:49:35;15.93;;;4.57;;
47413;SDS011;33163;0.000;0.000;2023-05-14T08:52:05;14.37;;;4.67;;
47413;SDS011;33163;0.000;0.000;2023-05-14T08:54:33;10.63;;;4.07;;
47413;SDS011;33163;0.000;0.000;2023-05-14T08:57:00;17.33;;;4.90;;
47413;SDS011;33163;0.000;0.000;2023-05-14T08:59:28;13.15;;;4.75;;
47413;SDS011;33163;0.000;0.000;2023-05-14T09:01:55;16.05;;;5.35;;
47413;SDS011;33163;0.000;0.000;2023-05-14T09:04:27;15.25;;;4.40;;
47413;SDS011;33163;0.000;0.000;2023-05-14T09:06:55;19.73;;;4.47;;
47413;SDS011;33163;0.000;0.000;2023-05-14T09:09:22;16.55;;;4.25;;
47413;SDS011;33163;0.000;0.000;2023-05-14T09:11:49;16.75;;;4.25;;
47413;SDS011;33163;0.000;0.000;2023-05-14T09:14:16;15.45;;;3.88;;
47413;SDS011;33163;0.000;0.000;2023-05-14T09:16:44;13.65;;;4.47;;
47413;SDS011;33163;0.000;0.000;2023-05-14T09:19:11;13.18;;;4.93;;
47413;SDS011;33163;0.000;0.000;2023-05-14T09:21:39;21.30;;;4.55;;
47413;SDS011;33163;0.000;0.000;2023-05-14T09:24:08;16.83;;;4.35;;
47413;SDS011;33163;0.000;0.000;2023-05-14T09:26:43;12.63;;;4.30;;
47413;SDS011;33163;0.000;0.000;2023-05-14T09:29:10;18.63;;;4.40;;
47413;SDS011;33163;0.000;0.000;2023-05-14T09:31:36;15.57;;;4.53;;
47413;SDS011;33163;0.000;0.000;2023-05-14T09:34:03;11.88;;;4.00;;
47413;SDS011;33163;0.000;0.000;2023-05-14T09:36:30;15.07;;;3.55;;
47413;SDS011;33163;0.000;0.000;2023-05-14T09:38:59;10.20;;;3.30;;
47413;SDS011;33163;0.000;0.000;2023-05-14T09:41:29;16.58;;;3.83;;
47413;SDS011;33163;0.000;0.000;2023-05-14T09:43:56;9.05;;;4.13;;
47413;SDS011;33163;0.000;0.000;2023-05-14T09:46:24;9.13;;;3.70;;
47413;SDS011;33163;0.000;0.000;2023-05-14T09:48:54;11.60;;;3.35;;
47413;SDS011;33163;0.000;0.000;2023-05-14T09:51:22;12.48;;;3.75;;
47413;SDS011;33163;0.000;0.000;2023-05-14T09:53:50;10.77;;;3.60;;
47413;SDS011;33163;0.000;0.000;2023-05-14T09:56:18;12.95;;;3.83;;
47413;SDS011;33163;0.000;0.000;2023-05-14T09:58:48;12.48;;;3.85;;
47413;SDS011;33163;0.000;0.000;2023-05-14T10:01:15;12.68;;;3.92;;
47413;SDS011;33163;0.000;0.000;2023-05-14T10:03:44;5.45;;;3.05;;
47413;SDS011;33163;0.000;0.000;2023-05-14T10:06:11;6.82;;;3.45;;
47413;SDS011;33163;0.000;0.000;2023-05-14T10:08:42;8.10;;;2.90;;
47413;SDS011;33163;0.000;0.000;2023-05-14T10:11:10;10.30;;;3.15;;
47413;SDS011;33163;0.000;0.000;2023-05-14T10:13:40;13.00;;;3.88;;
47413;SDS011;33163;0.000;0.000;2023-05-14T10:16:14;18.10;;;4.25;;
47413;SDS011;33163;0.000;0.000;2023-05-14T10:18:44;10.32;;;3.63;;
47413;SDS011;33163;0.000;0.000;2023-05-14T10:21:13;8.82;;;3.13;;
47413;SDS011;33163;0.000;0.000;2023-05-14T10:23:42;7.97;;;4.13;;
47413;SDS011;33163;0.000;0.000;2023-05-14T10:26:09;8.68;;;3.38;;
47413;SDS011;33163;0.000;0.000;2023-05-14T10:28:36;9.00;;;3.40;;
47413;SDS011;33163;0.000;0.000;2023-05-14T10:31:03;10.52;;;3.38;;
47413;SDS011;33163;0.000;0.000;2023-05-14T10:33:31;9.85;;;3.08;;
47413;SDS011;33163;0.000;0.000;2023-05-14T10:36:12;8.38;;;2.90;;
47413;SDS011;33163;0.000;0.000;2023-05-14T10:38:38;9.15;;;3.72;;
47413;SDS011;33163;0.000;0.000;2023-05-14T10:41:06;11.75;;;3.50;;
47413;SDS011;33163;0.000;0.000;2023-05-14T10:43:36;7.55;;;3.28;;
47413;SDS011;33163;0.000;0.000;2023-05-14T10:46:04;8.38;;;3.13;;
47413;SDS011;33163;0.000;0.000;2023-05-14T10:48:34;9.35;;;3.15;;
47413;SDS011;33163;0.000;0.000;2023-05-14T10:51:02;6.93;;;3.13;;
47413;SDS011;33163;0.000;0.000;2023-05-14T10:53:32;14.88;;;3.47;;
47413;SDS011;33163;0.000;0.000;2023-05-14T10:56:01;10.35;;;3.35;;
47413;SDS011;33163;0.000;0.000;2023-05-14T10:58:29;6.55;;;3.00;;
47413;SDS011;33163;0.000;0.000;2023-05-14T11:00:58;8.23;;;3.20;;
47413;SDS011;33163;0.000;0.000;2023-05-14T11:03:27;7.53;;;3.08;;
47413;SDS011;33163;0.000;0.000;2023-05-14T11:05:56;8.63;;;3.60;;
47413;SDS011;33163;0.000;0.000;2023-05-14T11:08:25;8.45;;;3.20;;
47413;SDS011;33163;0.000;0.000;2023-05-14T11:10:53;12.02;;;4.28;;
47413;SDS011;33163;0.000;0.000;2023-05-14T11:13:21;11.68;;;3.90;;
47413;SDS011;33163;0.000;0.000;2023-05-14T11:15:47;8.90;;;4.57;;
47413;SDS011;33163;0.000;0.000;2023-05-14T11:18:24;8.20;;;4.57;;
47413;SDS011;33163;0.000;0.000;2023-05-14T11:20:52;7.20;;;3.92;;
47413;SDS011;33163;0.000;0.000;2023-05-14T11:23:21;8.90;;;4.50;;
47413;SDS011;33163;0.000;0.000;2023-05-14T11:25:49;14.25;;;4.57;;
47413;SDS011;33163;0.000;0.000;2023-05-14T11:28:16;7.10;;;3.95;;
47413;SDS011;33163;0.000;0.000;2023-05-14T11:30:43;10.25;;;3.63;;
47413;SDS011;33163;0.000;0.000;2023-05-14T11:33:11;10.27;;;4.00;;
47413;SDS011;33163;0.000;0.000;2023-05-14T11:35:37;12.40;;;3.92;;
47413;SDS011;33163;0.000;0.000;2023-05-14T11:38:06;8.00;;;3.60;;
47413;SDS011;33163;0.000;0.000;2023-05-14T11:40:34;12.65;;;3.80;;
47413;SDS011;33163;0.000;0.000;2023-05-14T11:43:00;7.90;;;3.90;;
47413;SDS011;33163;0.000;0.000;2023-05-14T11:45:28;12.25;;;3.25;;
47413;SDS011;33163;0.000;0.000;2023-05-14T11:47:56;9.75;;;3.28;;
47413;SDS011;33163;0.000;0.000;2023-05-14T11:50:23;15.65;;;4.10;;
47413;SDS011;33163;0.000;0.000;2023-05-14T11:52:50;8.80;;;3.80;;
47413;SDS011;33163;0.000;0.000;2023-05-14T11:55:21;10.73;;;4.20;;
47413;SDS011;33163;0.000;0.000;2023-05-14T11:57:49;9.20;;;3.72;;
47413;SDS011;33163;0.000;0.000;2023-05-14T12:00:16;8.27;;;3.45;;
47413;SDS011;33163;0.000;0.000;2023-05-14T12:02:47;10.15;;;3.63;;
47413;SDS011;33163;0.000;0.000;2023-05-14T12:05:13;8.75;;;3.50;;
47413;SDS011;33163;0.000;0.000;2023-05-14T12:07:43;7.65;;;3.10;;
47413;SDS011;33163;0.000;0.000;2023-05-14T12:10:10;7.80;;;3.92;;
47413;SDS011;33163;0.000;0.000;2023-05-14T12:12:37;10.70;;;3.97;;
47413;SDS011;33163;0.000;0.000;2023-05-14T12:15:10;11.90;;;4.18;;
47413;SDS011;33163;0.000;0.000;2023-05-14T12:17:38;13.85;;;4.30;;
47413;SDS011;33163;0.000;0.000;2023-05-14T12:20:07;21.55;;;4.43;;
47413;SDS011;33163;0.000;0.000;2023-05-14T12:22:36;16.98;;;4.18;;
47413;SDS011;33163;0.000;0.000;2023-05-14T12:25:08;10.65;;;3.75;;
47413;SDS011;33163;0.000;0.000;2023-05-14T12:27:37;12.40;;;3.72;;
47413;SDS011;33163;0.000;0.000;2023-05-14T12:30:04;14.30;;;4.15;;
47413;SDS011;33163;0.000;0.000;2023-05-14T12:32:34;12.32;;;4.15;;
47413;SDS011;33163;0.000;0.000;2023-05-14T12:35:03;12.93;;;3.55;;
47413;SDS011;33163;0.000;0.000;2023-05-14T12:37:31;11.13;;;4.53;;
47413;SDS011;33163;0.000;0.000;2023-05-14T12:39:58;13.02;;;3.78;;
47413;SDS011;33163;0.000;0.000;2023-05-14T12:42:24;11.13;;;3.85;;
47413;SDS011;33163;0.000;0.000;2023-05-14T12:44:51;13.73;;;4.90;;
47413;SDS011;33163;0.000;0.000;2023-05-14T12:47:18;9.80;;;4.30;;
47413;SDS011;33163;0.000;0.000;2023-05-14T12:49:46;14.55;;;5.38;;
47413;SDS011;33163;0.000;0.000;2023-05-14T12:52:13;15.45;;;5.03;;
47413;SDS011;33163;0.000;0.000;2023-05-14T12:54:40;12.00;;;4.03;;
47413;SDS011;33163;0.000;0.000;2023-05-14T12:57:07;9.02;;;3.53;;
47413;SDS011;33163;0.000;0.000;2023-05-14T12:59:34;18.63;;;4.95;;
47413;SDS011;33163;0.000;0.000;2023-05-14T13:02:00;11.55;;;4.50;;
47413;SDS011;33163;0.000;0.000;2023-05-14T13:04:27;16.20;;;4.88;;
47413;SDS011;33163;0.000;0.000;2023-05-14T13:06:55;12.65;;;4.20;;
47413;SDS011;33163;0.000;0.000;2023-05-14T13:09:22;11.20;;;5.03;;
47413;SDS011;33163;0.000;0.000;2023-05-14T13:11:49;10.48;;;3.63;;
47413;SDS011;33163;0.000;0.000;2023-05-14T13:14:16;16.85;;;4.85;;
47413;SDS011;33163;0.000;0.000;2023-05-14T13:16:42;16.77;;;4.90;;
47413;SDS011;33163;0.000;0.000;2023-05-14T13:19:09;15.57;;;4.85;;
47413;SDS011;33163;0.000;0.000;2023-05-14T13:21:36;11.25;;;3.83;;
47413;SDS011;33163;0.000;0.000;2023-05-14T13:24:04;10.13;;;4.60;;
47413;SDS011;33163;0.000;0.000;2023-05-14T13:26:31;11.45;;;4.78;;
47413;SDS011;33163;0.000;0.000;2023-05-14T13:28:58;9.85;;;4.97;;
47413;SDS011;33163;0.000;0.000;2023-05-14T13:31:25;17.88;;;4.82;;
47413;SDS011;33163;0.000;0.000;2023-05-14T13:33:51;12.60;;;5.00;;
47413;SDS011;33163;0.000;0.000;2023-05-14T13:36:18;18.70;;;4.53;;
47413;SDS011;33163;0.000;0.000;2023-05-14T13:38:45;17.75;;;4.93;;
47413;SDS011;33163;0.000;0.000;2023-05-14T13:41:13;13.95;;;4.80;;
47413;SDS011;33163;0.000;0.000;2023-05-14T13:43:40;15.27;;;4.95;;
47413;SDS011;33163;0.000;0.000;2023-05-14T13:46:07;12.85;;;4.20;;
47413;SDS011;33163;0.000;0.000;2023-05-14T13:48:33;21.45;;;4.45;;
47413;SDS011;33163;0.000;0.000;2023-05-14T13:51:01;10.45;;;3.97;;
47413;SDS011;33163;0.000;0.000;2023-05-14T13:53:28;15.95;;;4.63;;
47413;SDS011;33163;0.000;0.000;2023-05-14T13:55:55;13.25;;;5.32;;
47413;SDS011;33163;0.000;0.000;2023-05-14T13:58:23;9.52;;;4.65;;
47413;SDS011;33163;0.000;0.000;2023-05-14T14:00:51;14.52;;;4.80;;
47413;SDS011;33163;0.000;0.000;2023-05-14T14:03:18;11.27;;;4.40;;
47413;SDS011;33163;0.000;0.000;2023-05-14T14:05:45;11.38;;;4.55;;
47413;SDS011;33163;0.000;0.000;2023-05-14T14:08:11;16.27;;;4.72;;
47413;SDS011;33163;0.000;0.000;2023-05-14T14:10:38;8.93;;;3.78;;
47413;SDS011;33163;0.000;0.000;2023-05-14T14:13:06;12.93;;;3.95;;
47413;SDS011;33163;0.000;0.000;2023-05-14T14:15:34;11.68;;;4.15;;
47413;SDS011;33163;0.000;0.000;2023-05-14T14:18:01;16.40;;;3.85;;
47413;SDS011;33163;0.000;0.000;2023-05-14T14:20:28;10.18;;;4.05;;
47413;SDS011;33163;0.000;0.000;2023-05-14T14:22:56;17.73;;;3.40;;
47413;SDS011;33163;0.000;0.000;2023-05-14T14:25:23;15.73;;;3.83;;
47413;SDS011;33163;0.000;0.000;2023-05-14T14:27:49;13.05;;;3.97;;
47413;SDS011;33163;0.000;0.000;2023-05-14T14:30:16;14.13;;;3.60;;
47413;SDS011;33163;0.000;0.000;2023-05-14T14:32:44;9.60;;;3.40;;
47413;SDS011;33163;0.000;0.000;2023-05-14T14:35:12;13.68;;;4.32;;
47413;SDS011;33163;0.000;0.000;2023-05-14T14:37:39;12.85;;;2.72;;
47413;SDS011;33163;0.000;0.000;2023-05-14T14:40:09;8.30;;;2.97;;
47413;SDS011;33163;0.000;0.000;2023-05-14T14:42:36;8.73;;;3.35;;
47413;SDS011;33163;0.000;0.000;2023-05-14T14:45:03;7.60;;;3.40;;
47413;SDS011;33163;0.000;0.000;2023-05-14T14:47:31;14.88;;;3.30;;
47413;SDS011;33163;0.000;0.000;2023-05-14T14:49:59;15.98;;;4.13;;
47413;SDS011;33163;0.000;0.000;2023-05-14T14:52:26;13.25;;;3.55;;
47413;SDS011;33163;0.000;0.000;2023-05-14T14:54:53;21.13;;;4.43;;
47413;SDS011;33163;0.000;0.000;2023-05-14T14:57:20;10.10;;;3.70;;